createdAt,value
2022-12-28T00:01:24.191Z,8.70
2022-12-28T00:03:52.314Z,8.70
2022-12-28T00:06:23.413Z,8.70
2022-12-28T00:08:53.797Z,8.70
2022-12-28T00:11:27.411Z,8.80
2022-12-28T00:14:00.722Z,8.70
2022-12-28T00:16:31.683Z,8.80
2022-12-28T00:19:00.708Z,8.90
2022-12-28T00:21:28.800Z,9.00
2022-12-28T00:23:58.520Z,9.00
2022-12-28T00:26:26.938Z,9.00
2022-12-28T00:28:58.290Z,9.10
2022-12-28T00:31:28.983Z,9.20
2022-12-28T00:33:56.499Z,9.30
2022-12-28T00:36:23.381Z,9.20
2022-12-28T00:38:50.419Z,9.30
2022-12-28T00:41:17.570Z,9.30
2022-12-28T00:43:44.643Z,9.30
2022-12-28T00:46:11.820Z,9.30
2022-12-28T00:48:38.713Z,9.30
2022-12-28T00:51:12.228Z,9.30
2022-12-28T00:53:39.048Z,9.30
2022-12-28T00:56:14.328Z,9.20
2022-12-28T00:58:41.302Z,9.30
2022-12-28T01:01:16.926Z,9.30
2022-12-28T01:03:44.406Z,9.30
2022-12-28T01:06:13.970Z,9.40
2022-12-28T01:08:42.466Z,9.50
2022-12-28T01:11:11.554Z,9.50
2022-12-28T01:13:38.990Z,9.40
2022-12-28T01:16:12.149Z,9.50
2022-12-28T01:18:39.213Z,9.50
2022-12-28T01:21:19.480Z,9.40
2022-12-28T01:23:47.360Z,9.40
2022-12-28T01:26:15.694Z,9.40
2022-12-28T01:28:43.022Z,9.50
2022-12-28T01:31:13.665Z,9.60
2022-12-28T01:33:40.925Z,9.60
2022-12-28T01:36:15.570Z,9.60
2022-12-28T01:38:43.758Z,9.50
2022-12-28T01:41:12.530Z,9.50
2022-12-28T01:43:46.658Z,9.60
2022-12-28T01:46:18.231Z,9.60
2022-12-28T01:49:08.057Z,9.70
2022-12-28T01:51:43.693Z,9.60
2022-12-28T01:54:11.372Z,9.70
2022-12-28T01:56:39.715Z,9.50
2022-12-28T01:59:06.714Z,9.50
2022-12-28T02:01:33.786Z,9.50
2022-12-28T02:04:01.606Z,9.50
2022-12-28T02:06:31.330Z,9.70
2022-12-28T02:09:30.062Z,9.70
2022-12-28T02:11:59.055Z,9.60
2022-12-28T02:14:26.119Z,9.70
2022-12-28T02:16:55.185Z,9.70
2022-12-28T02:19:36.350Z,9.70
2022-12-28T02:22:12.160Z,9.80
2022-12-28T02:25:20.690Z,9.70
2022-12-28T02:28:02.671Z,9.70
2022-12-28T02:30:34.329Z,9.80
2022-12-28T02:33:19.001Z,9.90
2022-12-28T02:36:00.036Z,9.70
2022-12-28T02:38:37.574Z,9.90
2022-12-28T02:41:09.631Z,9.90
2022-12-28T02:43:36.890Z,9.80
2022-12-28T02:46:29.882Z,9.90
2022-12-28T02:49:15.841Z,9.90
2022-12-28T02:52:04.410Z,9.80
2022-12-28T02:54:52.894Z,9.90
2022-12-28T02:57:41.092Z,10.00
2022-12-28T03:00:19.690Z,10.00
2022-12-28T03:02:58.979Z,10.00
2022-12-28T03:06:19.324Z,10.10
2022-12-28T03:08:55.831Z,10.10
2022-12-28T03:11:32.709Z,10.20
2022-12-28T03:14:06.778Z,10.30
2022-12-28T03:16:58.236Z,10.20
2022-12-28T03:19:51.267Z,10.20
2022-12-28T03:22:38.370Z,10.10
2022-12-28T03:25:30.742Z,10.20
2022-12-28T03:28:17.694Z,10.10
2022-12-28T03:31:09.045Z,10.00
2022-12-28T03:33:48.555Z,10.10
2022-12-28T03:36:53.606Z,10.10
2022-12-28T03:40:21.737Z,10.10
2022-12-28T03:43:13.915Z,10.20
2022-12-28T03:45:59.624Z,10.10
2022-12-28T03:48:26.853Z,10.20
2022-12-28T03:50:55.393Z,10.20
2022-12-28T03:53:30.504Z,10.30
2022-12-28T03:56:18.441Z,10.40
2022-12-28T03:58:45.951Z,10.40
2022-12-28T04:01:13.116Z,10.20
2022-12-28T04:03:40.532Z,10.10
2022-12-28T04:06:08.940Z,10.20
2022-12-28T04:08:36.029Z,10.20
2022-12-28T04:11:02.979Z,10.30
2022-12-28T04:13:31.872Z,10.30
2022-12-28T04:16:04.322Z,10.30
2022-12-28T04:18:32.586Z,10.30
2022-12-28T04:21:00.053Z,10.30
2022-12-28T04:23:27.312Z,10.30
2022-12-28T04:26:14.247Z,10.40
2022-12-28T04:28:42.185Z,10.30
2022-12-28T04:31:12.256Z,10.20
2022-12-28T04:33:40.118Z,10.20
2022-12-28T04:36:13.589Z,10.30
2022-12-28T04:38:40.563Z,10.20
2022-12-28T04:41:08.776Z,10.40
2022-12-28T04:43:36.375Z,10.20
2022-12-28T04:46:06.124Z,10.20
2022-12-28T04:48:34.263Z,10.20
2022-12-28T04:51:10.616Z,10.30
2022-12-28T04:53:39.332Z,10.30
2022-12-28T04:56:07.611Z,10.30
2022-12-28T04:58:34.641Z,10.30
2022-12-28T05:01:06.935Z,10.30
2022-12-28T05:03:36.414Z,10.40
2022-12-28T05:06:07.609Z,10.30
2022-12-28T05:08:36.423Z,10.30
2022-12-28T05:11:05.719Z,10.40
2022-12-28T05:13:33.295Z,10.40
2022-12-28T05:16:05.422Z,10.40
2022-12-28T05:18:32.294Z,10.40
2022-12-28T05:21:03.661Z,10.40
2022-12-28T05:23:31.477Z,10.40
2022-12-28T05:25:58.630Z,10.50
2022-12-28T05:28:26.718Z,10.40
2022-12-28T05:30:58.958Z,10.40
2022-12-28T05:33:25.772Z,10.40
2022-12-28T05:35:52.611Z,10.40
2022-12-28T05:38:19.601Z,10.40
2022-12-28T05:40:46.705Z,10.40
2022-12-28T05:43:13.670Z,10.50
2022-12-28T05:45:40.746Z,10.30
2022-12-28T05:48:07.732Z,10.40
2022-12-28T05:50:34.736Z,10.40
2022-12-28T05:53:01.904Z,10.40
2022-12-28T05:55:29.324Z,10.40
2022-12-28T05:57:59.379Z,10.50
2022-12-28T06:00:26.587Z,10.40
2022-12-28T06:02:55.567Z,10.40
2022-12-28T06:05:22.583Z,10.30
2022-12-28T06:07:53.287Z,10.30
2022-12-28T06:10:20.312Z,10.30
2022-12-28T06:12:47.182Z,10.40
2022-12-28T06:15:13.975Z,10.40
2022-12-28T06:17:40.762Z,10.40
2022-12-28T06:20:08.063Z,10.60
2022-12-28T06:22:36.157Z,10.60
2022-12-28T06:25:03.246Z,10.60
2022-12-28T06:27:30.306Z,10.40
2022-12-28T06:29:57.355Z,10.50
2022-12-28T06:32:24.261Z,10.40
2022-12-28T06:34:51.154Z,10.50
2022-12-28T06:37:18.477Z,10.50
2022-12-28T06:39:45.643Z,10.60
2022-12-28T06:42:12.459Z,10.60
2022-12-28T06:44:44.418Z,10.60
2022-12-28T06:47:12.289Z,10.50
2022-12-28T06:49:39.321Z,10.50
2022-12-28T06:52:06.477Z,10.60
2022-12-28T06:54:33.589Z,10.70
2022-12-28T06:57:00.511Z,10.70
2022-12-28T06:59:27.399Z,10.60
2022-12-28T07:01:54.488Z,10.70
2022-12-28T07:04:21.478Z,10.60
2022-12-28T07:06:48.431Z,10.70
2022-12-28T07:09:16.556Z,10.70
2022-12-28T07:11:44.671Z,10.80
2022-12-28T07:14:12.062Z,10.80
2022-12-28T07:19:05.019Z,10.70
2022-12-28T07:21:35.336Z,10.70
2022-12-28T07:24:03.386Z,10.60
2022-12-28T07:26:32.725Z,10.70
2022-12-28T07:29:02.024Z,10.70
2022-12-28T07:31:41.730Z,10.70
2022-12-28T07:34:11.242Z,10.80
2022-12-28T07:36:38.227Z,10.80
2022-12-28T07:39:05.353Z,10.70
2022-12-28T07:41:33.843Z,10.70
2022-12-28T07:44:01.584Z,10.80
2022-12-28T07:46:34.399Z,10.70
2022-12-28T07:49:01.446Z,10.80
2022-12-28T07:51:39.472Z,10.70
2022-12-28T07:54:06.869Z,10.70
2022-12-28T07:59:02.419Z,10.60
2022-12-28T08:01:32.382Z,10.70
2022-12-28T08:04:04.321Z,10.70
2022-12-28T08:06:35.629Z,10.60
2022-12-28T08:09:03.664Z,10.60
2022-12-28T08:11:33.885Z,10.70
2022-12-28T08:14:01.431Z,10.70
2022-12-28T08:16:31.234Z,10.70
2022-12-28T08:18:58.558Z,10.80
2022-12-28T08:21:34.818Z,10.80
2022-12-28T08:24:02.694Z,10.80
2022-12-28T08:26:35.819Z,10.70
2022-12-28T08:29:06.242Z,10.70
2022-12-28T08:31:36.293Z,10.80
2022-12-28T08:34:04.888Z,10.60
2022-12-28T08:36:32.735Z,10.60
2022-12-28T08:39:01.433Z,10.60
2022-12-28T08:41:29.963Z,10.60
2022-12-28T08:43:57.875Z,10.60
2022-12-28T08:46:33.438Z,10.60
2022-12-28T08:49:01.607Z,10.60
2022-12-28T08:51:36.011Z,10.50
2022-12-28T08:54:03.839Z,10.50
2022-12-28T08:56:34.624Z,10.40
2022-12-28T08:59:02.744Z,10.50
2022-12-28T09:01:43.700Z,10.50
2022-12-28T09:04:22.265Z,10.50
2022-12-28T09:06:49.737Z,10.60
2022-12-28T09:09:19.266Z,10.50
2022-12-28T09:11:52.273Z,10.50
2022-12-28T09:14:23.780Z,10.50
2022-12-28T09:16:53.023Z,10.50
2022-12-28T09:19:20.498Z,10.50
2022-12-28T09:21:49.343Z,10.60
2022-12-28T09:24:16.381Z,10.60
2022-12-28T09:26:43.647Z,10.50
2022-12-28T09:29:13.166Z,10.50
2022-12-28T09:31:41.647Z,10.40
2022-12-28T09:36:59.850Z,10.50
2022-12-28T09:39:27.180Z,10.50
2022-12-28T09:42:03.711Z,10.60
2022-12-28T09:44:48.166Z,10.60
2022-12-28T09:47:27.836Z,10.60
2022-12-28T09:50:00.951Z,10.60
2022-12-28T09:52:49.406Z,10.70
2022-12-28T09:55:18.933Z,10.70
2022-12-28T09:57:53.441Z,10.60
2022-12-28T10:00:26.021Z,10.60
2022-12-28T10:02:59.398Z,10.70
2022-12-28T10:05:28.032Z,10.60
2022-12-28T10:08:04.472Z,10.60
2022-12-28T10:10:31.593Z,10.60
2022-12-28T10:13:37.103Z,10.70
2022-12-28T10:15:58.447Z,10.70
2022-12-28T10:18:27.561Z,10.60
2022-12-28T10:20:55.895Z,10.70
2022-12-28T10:23:31.971Z,10.70
2022-12-28T10:26:01.195Z,10.70
2022-12-28T10:28:38.549Z,10.80
2022-12-28T10:31:08.504Z,10.80
2022-12-28T10:33:53.721Z,10.80
2022-12-28T10:36:21.799Z,10.80
2022-12-28T10:38:52.717Z,10.90
2022-12-28T10:41:20.672Z,10.80
2022-12-28T10:44:21.440Z,10.90
2022-12-28T10:46:39.249Z,10.90
2022-12-28T10:49:10.988Z,10.90
2022-12-28T10:52:03.162Z,10.90
2022-12-28T10:54:34.491Z,10.90
2022-12-28T10:57:03.021Z,10.90
2022-12-28T10:59:31.376Z,11.00
2022-12-28T11:02:30.144Z,11.00
2022-12-28T11:05:00.324Z,11.00
2022-12-28T11:07:31.594Z,11.10
2022-12-28T11:10:26.967Z,11.10
2022-12-28T11:12:56.647Z,11.10
2022-12-28T11:15:26.898Z,11.10
2022-12-28T11:18:00.303Z,11.10
2022-12-28T11:20:34.517Z,11.20
2022-12-28T11:23:05.053Z,11.20
2022-12-28T11:25:34.668Z,11.20
2022-12-28T11:28:27.441Z,11.20
2022-12-28T11:30:54.762Z,11.20
2022-12-28T11:33:38.499Z,11.20
2022-12-28T11:36:10.019Z,11.20
2022-12-28T11:38:45.668Z,11.20
2022-12-28T11:41:47.020Z,11.30
2022-12-28T11:44:35.331Z,11.30
2022-12-28T11:47:16.267Z,11.40
2022-12-28T11:49:45.086Z,11.30
2022-12-28T11:52:18.096Z,11.30
2022-12-28T11:54:52.623Z,11.30
2022-12-28T11:57:38.159Z,11.30
2022-12-28T12:00:22.340Z,11.30
2022-12-28T12:02:53.936Z,11.30
2022-12-28T12:05:39.071Z,11.40
2022-12-28T12:08:12.096Z,11.40
2022-12-28T12:10:41.905Z,11.40
2022-12-28T12:13:42.996Z,11.30
2022-12-28T12:16:19.662Z,11.40
2022-12-28T12:18:51.210Z,11.40
2022-12-28T12:21:39.878Z,11.40
2022-12-28T12:24:44.687Z,11.50
2022-12-28T12:27:16.440Z,11.60
2022-12-28T12:30:00.431Z,11.50
2022-12-28T12:32:46.568Z,11.60
2022-12-28T12:35:22.496Z,11.60
2022-12-28T12:38:09.872Z,11.60
2022-12-28T12:40:55.567Z,11.70
2022-12-28T12:43:43.139Z,11.70
2022-12-28T12:46:29.185Z,11.70
2022-12-28T12:49:14.363Z,11.70
2022-12-28T12:52:19.551Z,11.70
2022-12-28T12:55:11.891Z,11.80
2022-12-28T12:58:17.489Z,11.70
2022-12-28T13:01:16.200Z,11.70
2022-12-28T13:03:51.148Z,11.70
2022-12-28T13:06:21.986Z,11.50
2022-12-28T13:09:00.392Z,11.60
2022-12-28T13:11:31.148Z,11.60
2022-12-28T13:13:58.311Z,11.70
2022-12-28T13:16:28.576Z,11.70
2022-12-28T13:19:06.657Z,11.80
2022-12-28T13:21:43.543Z,11.80
2022-12-28T13:24:40.391Z,11.90
2022-12-28T13:27:19.110Z,11.90
2022-12-28T13:29:54.500Z,11.90
2022-12-28T13:32:38.304Z,12.00
2022-12-28T13:35:22.315Z,12.10
2022-12-28T13:38:04.389Z,12.10
2022-12-28T13:40:32.868Z,12.10
2022-12-28T13:43:09.404Z,12.20
2022-12-28T13:45:36.481Z,12.10
2022-12-28T13:48:05.569Z,12.00
2022-12-28T13:50:34.784Z,12.00
2022-12-28T13:53:09.650Z,11.90
2022-12-28T13:55:40.005Z,11.90
2022-12-28T13:58:16.365Z,11.90
2022-12-28T14:00:46.606Z,11.70
2022-12-28T14:03:15.668Z,11.70
2022-12-28T14:05:50.854Z,11.70
2022-12-28T14:08:18.504Z,11.60
2022-12-28T14:10:47.965Z,11.60
2022-12-28T14:13:17.650Z,11.60
2022-12-28T14:15:45.145Z,11.50
2022-12-28T14:18:16.827Z,11.50
2022-12-28T14:20:52.195Z,11.40
2022-12-28T14:23:30.463Z,11.30
2022-12-28T14:26:01.980Z,11.30
2022-12-28T14:28:36.802Z,11.30
2022-12-28T14:31:06.018Z,11.20
2022-12-28T14:33:50.928Z,11.20
2022-12-28T14:39:04.786Z,11.20
2022-12-28T14:41:41.069Z,11.20
2022-12-28T14:44:23.441Z,11.10
2022-12-28T14:46:54.356Z,11.20
2022-12-28T14:49:44.520Z,11.00
2022-12-28T14:52:11.868Z,11.00
2022-12-28T14:54:50.555Z,11.00
2022-12-28T14:57:43.403Z,10.90
2022-12-28T15:00:16.461Z,11.00
2022-12-28T15:02:43.567Z,11.00
2022-12-28T15:05:56.666Z,10.80
2022-12-28T15:08:23.636Z,10.80
2022-12-28T15:10:53.643Z,10.90
2022-12-28T15:13:21.583Z,10.80
2022-12-28T15:16:00.441Z,10.80
2022-12-28T15:18:30.756Z,10.80
2022-12-28T15:21:02.618Z,10.80
2022-12-28T15:23:29.531Z,10.80
2022-12-28T15:25:56.458Z,10.80
2022-12-28T15:28:26.332Z,10.80
2022-12-28T15:30:53.232Z,10.70
2022-12-28T15:33:20.186Z,10.70
2022-12-28T15:35:47.129Z,10.70
2022-12-28T15:38:14.433Z,10.70
2022-12-28T15:40:41.825Z,10.70
2022-12-28T15:43:08.637Z,10.70
2022-12-28T15:45:35.527Z,10.70
2022-12-28T15:48:02.360Z,10.70
2022-12-28T15:50:29.433Z,10.70
2022-12-28T15:52:56.330Z,10.70
2022-12-28T15:55:23.200Z,10.70
2022-12-28T15:57:50.223Z,10.70
2022-12-28T16:00:18.935Z,10.70
2022-12-28T16:02:46.728Z,10.70
2022-12-28T16:05:14.365Z,10.70
2022-12-28T16:07:41.477Z,10.70
2022-12-28T16:10:08.939Z,10.60
2022-12-28T16:12:36.025Z,10.70
2022-12-28T16:15:02.960Z,10.70
2022-12-28T16:17:29.976Z,10.80
2022-12-28T16:19:56.991Z,10.80
2022-12-28T16:22:24.102Z,10.70
2022-12-28T16:24:51.048Z,10.80
2022-12-28T16:27:18.631Z,10.80
2022-12-28T16:29:46.367Z,10.80
2022-12-28T16:32:13.372Z,10.80
2022-12-28T16:34:40.578Z,10.80
2022-12-28T16:37:10.076Z,10.80
2022-12-28T16:39:38.072Z,10.80
2022-12-28T16:42:06.548Z,10.80
2022-12-28T16:44:34.125Z,10.80
2022-12-28T16:47:01.091Z,10.90
2022-12-28T16:49:28.572Z,10.80
2022-12-28T16:51:55.776Z,10.90
2022-12-28T16:54:24.310Z,10.90
2022-12-28T16:56:52.432Z,11.00
2022-12-28T16:59:24.550Z,10.90
2022-12-28T17:01:53.080Z,11.00
2022-12-28T17:04:20.547Z,11.10
2022-12-28T17:06:50.824Z,11.10
2022-12-28T17:09:18.711Z,11.10
2022-12-28T17:11:49.915Z,11.10
2022-12-28T17:14:35.888Z,11.20
2022-12-28T17:17:04.615Z,11.10
2022-12-28T17:19:31.735Z,11.10
2022-12-28T17:21:58.639Z,11.10
2022-12-28T17:24:26.019Z,11.10
2022-12-28T17:26:53.120Z,11.10
2022-12-28T17:29:20.202Z,11.10
2022-12-28T17:31:47.096Z,11.10
2022-12-28T17:34:14.133Z,11.20
2022-12-28T17:36:41.855Z,11.20
2022-12-28T17:39:08.849Z,11.20
2022-12-28T17:41:35.665Z,11.30
2022-12-28T17:44:03.272Z,11.30
2022-12-28T17:46:31.625Z,11.40
2022-12-28T17:48:59.997Z,11.50
2022-12-28T17:51:29.175Z,11.50
2022-12-28T17:53:57.376Z,11.50
2022-12-28T17:56:24.991Z,11.50
2022-12-28T17:58:55.898Z,11.60
2022-12-28T18:01:23.269Z,11.60
2022-12-28T18:03:50.486Z,11.60
2022-12-28T18:06:17.536Z,11.60
2022-12-28T18:08:44.894Z,11.60
2022-12-28T18:11:12.581Z,11.60
2022-12-28T18:13:40.628Z,11.60
2022-12-28T18:16:09.353Z,11.60
2022-12-28T18:18:36.625Z,11.60
2022-12-28T18:21:07.631Z,11.70
2022-12-28T18:23:35.285Z,11.80
2022-12-28T18:26:12.161Z,11.70
2022-12-28T18:28:39.101Z,11.70
2022-12-28T18:31:06.761Z,11.60
2022-12-28T18:33:36.842Z,11.70
2022-12-28T18:36:06.757Z,11.70
2022-12-28T18:38:37.478Z,11.60
2022-12-28T18:41:04.432Z,11.60
2022-12-28T18:43:31.386Z,11.70
2022-12-28T18:46:00.096Z,11.70
2022-12-28T18:48:27.785Z,11.70
2022-12-28T18:51:03.175Z,11.80
2022-12-28T18:53:31.044Z,11.90
2022-12-28T18:56:19.173Z,11.90
2022-12-28T18:58:52.018Z,11.90
2022-12-28T19:04:10.052Z,12.00
2022-12-28T19:06:38.141Z,12.00
2022-12-28T19:09:06.841Z,12.00
2022-12-28T19:11:33.872Z,12.00
2022-12-28T19:14:03.128Z,12.00
2022-12-28T19:16:31.881Z,11.80
2022-12-28T19:19:00.150Z,11.90
2022-12-28T19:21:36.081Z,11.90
2022-12-28T19:24:11.523Z,11.90
2022-12-28T19:26:38.353Z,11.90
2022-12-28T19:29:05.674Z,11.90
2022-12-28T19:31:34.852Z,12.00
2022-12-28T19:34:01.815Z,12.10
2022-12-28T19:36:28.985Z,12.00
2022-12-28T19:38:56.621Z,12.00
2022-12-28T19:41:23.955Z,12.00
2022-12-28T19:43:51.451Z,12.00
2022-12-28T19:46:30.556Z,12.10
2022-12-28T19:49:02.515Z,12.10
2022-12-28T19:51:32.153Z,12.00
2022-12-28T19:54:00.702Z,12.10
2022-12-28T19:56:28.091Z,12.10
2022-12-28T19:59:01.233Z,12.10
2022-12-28T20:01:32.364Z,12.10
2022-12-28T20:04:00.094Z,12.00
2022-12-28T20:06:29.327Z,12.10
2022-12-28T20:08:58.644Z,12.10
2022-12-28T20:11:26.724Z,12.20
2022-12-28T20:13:57.557Z,12.20
2022-12-28T20:16:26.533Z,12.20
2022-12-28T20:18:54.706Z,12.20
2022-12-28T20:21:26.664Z,12.20
2022-12-28T20:23:54.395Z,12.20
2022-12-28T20:26:22.723Z,12.20
2022-12-28T20:28:51.005Z,12.20
2022-12-28T20:31:18.355Z,12.30
2022-12-28T20:33:46.297Z,12.40
2022-12-28T20:36:16.870Z,12.40
2022-12-28T20:38:44.412Z,12.40
2022-12-28T20:41:36.635Z,12.50
2022-12-28T20:44:16.068Z,12.50
2022-12-28T20:46:44.294Z,12.50
2022-12-28T20:49:11.586Z,12.50
2022-12-28T20:51:38.829Z,12.50
2022-12-28T20:54:06.508Z,12.50
2022-12-28T20:56:35.082Z,12.50
2022-12-28T20:59:01.925Z,12.50
2022-12-28T21:01:29.046Z,12.50
2022-12-28T21:03:56.120Z,12.60
2022-12-28T21:06:23.116Z,12.50
2022-12-28T21:08:50.125Z,12.60
2022-12-28T21:11:17.432Z,12.70
2022-12-28T21:13:45.206Z,12.70
2022-12-28T21:16:13.282Z,12.70
2022-12-28T21:18:40.919Z,12.70
2022-12-28T21:21:18.156Z,12.60
2022-12-28T21:23:45.608Z,12.70
2022-12-28T21:26:15.452Z,12.70
2022-12-28T21:28:43.114Z,12.70
2022-12-28T21:31:10.645Z,12.70
2022-12-28T21:33:39.056Z,12.70
2022-12-28T21:36:11.101Z,12.70
2022-12-28T21:38:40.246Z,12.80
2022-12-28T21:41:11.481Z,12.80
2022-12-28T21:43:39.035Z,12.80
2022-12-28T21:46:16.524Z,12.90
2022-12-28T21:48:43.565Z,12.90
2022-12-28T21:51:34.184Z,12.80
2022-12-28T21:54:08.289Z,12.80
2022-12-28T21:56:36.833Z,12.80
2022-12-28T21:59:04.013Z,12.80
2022-12-28T22:01:51.687Z,12.90
2022-12-28T22:04:39.697Z,12.90
2022-12-28T22:07:08.821Z,12.80
2022-12-28T22:09:54.801Z,12.60
2022-12-28T22:12:34.846Z,12.60
2022-12-28T22:15:39.478Z,12.50
2022-12-28T22:18:12.781Z,12.60
2022-12-28T22:20:47.094Z,12.60
2022-12-28T22:23:14.411Z,12.50
2022-12-28T22:25:41.914Z,12.40
2022-12-28T22:28:08.866Z,12.30
2022-12-28T22:30:36.774Z,12.40
2022-12-28T22:33:04.575Z,12.30
2022-12-28T22:35:32.060Z,12.20
2022-12-28T22:37:59.054Z,12.00
2022-12-28T22:40:27.414Z,11.90
2022-12-28T22:42:54.292Z,11.90
2022-12-28T22:45:23.696Z,11.90
2022-12-28T22:47:54.168Z,11.90
2022-12-28T22:50:21.313Z,11.90
2022-12-28T22:52:48.212Z,12.00
2022-12-28T22:55:15.388Z,11.90
2022-12-28T22:57:42.296Z,11.90
2022-12-28T23:00:12.727Z,11.90
2022-12-28T23:02:42.822Z,11.90
2022-12-28T23:05:11.332Z,11.90
2022-12-28T23:07:39.649Z,12.00
2022-12-28T23:10:08.463Z,12.00
2022-12-28T23:12:35.542Z,12.00
2022-12-28T23:15:19.745Z,12.10
2022-12-28T23:17:48.490Z,12.20
2022-12-28T23:20:33.977Z,12.20
2022-12-28T23:23:19.654Z,12.20
2022-12-28T23:26:05.308Z,12.30
2022-12-28T23:28:36.049Z,12.40
2022-12-28T23:31:03.140Z,12.30
2022-12-28T23:33:30.271Z,12.40
2022-12-28T23:36:02.564Z,12.40
2022-12-28T23:38:31.218Z,12.40
2022-12-28T23:41:16.791Z,12.40
2022-12-28T23:43:43.811Z,12.40
2022-12-28T23:46:10.976Z,12.40
2022-12-28T23:48:38.090Z,12.40
2022-12-28T23:51:08.272Z,12.50
2022-12-28T23:53:35.651Z,12.50
2022-12-28T23:56:02.590Z,12.50
2022-12-28T23:58:29.572Z,12.50
